PWSweather.com
Personal Weather Stations
Station Observations
WISCHPK61
Green Bay Schmitt Park, Green Bay, WI 54311

Green Bay Schmitt ParkGreen Bay, WI 54311

Lat: 44.514277, Lon: -87.935067

Elevation: 735

Station Type: Acu Rite Pro Weather Center model 02032C

http://greenbayweathercam.com

High Low Average
Temperature 31.8°F-0.1°C 14.2°F-9.9°C 26.1°F-3.3°C
Dew Point 31.6°F-0.2°C 14.0°F-10.0°C 25.8°F-3.4°C
Winds 2.3 mph 3.7 kmh Calm Calm Calm SCalm S
Wind Gusts 3.5 mph5.6 kmh -- --
Humidity 99% 88% 98%
Pressure 29.64 in1003.7 mb 28.89 in978.3 mb -
Precipitation 0.00 in0.0 mm - -
Hour Temp Dew Point Humidity Winds Wind Gusts Pressure Precip Precip Rate Daily Precip Total
12:00 AM 14.2°F-9.9°C 14.0°F-10.0°C 99% Calm Calm -- 29.66 in1004.4 mb - 0.00 in0.0 mm 0.00 in0.0 mm
01:00 AM 14.2°F-9.9°C 14.0°F-10.0°C 99% Calm Calm -- 29.64 in1003.7 mb - 0.00 in0.0 mm 0.00 in0.0 mm
02:00 AM 15.4°F-9.2°C 15.2°F-9.3°C 99% Calm Calm -- 29.62 in1003.0 mb - 0.00 in0.0 mm 0.00 in0.0 mm
03:00 AM 16.7°F-8.5°C 16.5°F-8.6°C 99% Calm Calm -- 29.57 in1001.4 mb - 0.00 in0.0 mm 0.00 in0.0 mm
04:00 AM 17.8°F-7.9°C 17.6°F-8.0°C 99% Calm Calm -- 29.53 in1000.0 mb - 0.00 in0.0 mm 0.00 in0.0 mm
05:00 AM 18.0°F-7.8°C 17.8°F-7.9°C 99% Calm Calm -- 29.51 in999.3 mb - 0.00 in0.0 mm 0.00 in0.0 mm
06:00 AM 18.9°F-7.3°C 18.7°F-7.4°C 99% Calm Calm -- 29.47 in998.0 mb - 0.00 in0.0 mm 0.00 in0.0 mm
07:00 AM 18.9°F-7.3°C 18.7°F-7.4°C 99% Calm Calm -- 29.45 in997.3 mb - 0.00 in0.0 mm 0.00 in0.0 mm
08:00 AM 21.0°F-6.1°C 20.8°F-6.2°C 99% Calm Calm -- 29.42 in996.3 mb - 0.00 in0.0 mm 0.00 in0.0 mm
09:00 AM 25.7°F-3.5°C 25.5°F-3.6°C 99% Calm Calm -- 29.37 in994.6 mb - 0.00 in0.0 mm 0.00 in0.0 mm
10:00 AM 27.5°F-2.5°C 27.3°F-2.6°C 99% Calm Calm -- 29.31 in992.6 mb - 0.00 in0.0 mm 0.00 in0.0 mm
11:00 AM 28.8°F-1.8°C 28.6°F-1.9°C 99% Calm Calm -- 29.26 in990.9 mb - 0.00 in0.0 mm 0.00 in0.0 mm
12:00 PM 31.8°F-0.1°C 31.6°F-0.2°C 99% Calm Calm -- 29.19 in988.5 mb - 0.00 in0.0 mm 0.00 in0.0 mm
01:00 PM 30.4°F-0.9°C 30.2°F-1.0°C 99% Calm Calm -- 29.13 in986.5 mb - 0.00 in0.0 mm 0.00 in0.0 mm
02:00 PM 28.9°F-1.7°C 28.7°F-1.8°C 99% Calm Calm -- 29.05 in983.7 mb - 0.00 in0.0 mm 0.00 in0.0 mm
03:00 PM 29.7°F-1.3°C 29.5°F-1.4°C 99% Calm Calm -- 29.01 in982.4 mb - 0.00 in0.0 mm 0.00 in0.0 mm
04:00 PM 31.8°F-0.1°C 28.7°F-1.8°C 88% Calm Calm 3.5 mph5.6 kmh 28.96 in980.7 mb - 0.00 in0.0 mm 0.00 in0.0 mm
05:00 PM 31.5°F-0.3°C 31.3°F-0.4°C 99% Calm Calm -- 28.94 in980.0 mb - 0.00 in0.0 mm 0.00 in0.0 mm
06:00 PM 31.1°F-0.5°C 30.9°F-0.6°C 99% Calm Calm -- 28.91 in979.0 mb - 0.00 in0.0 mm 0.00 in0.0 mm
07:00 PM 31.3°F-0.4°C 31.1°F-0.5°C 99% Calm Calm -- 28.89 in978.3 mb - 0.00 in0.0 mm 0.00 in0.0 mm
08:00 PM 31.6°F-0.2°C 30.8°F-0.7°C 97% Calm Calm -- 28.90 in978.7 mb - 0.00 in0.0 mm 0.00 in0.0 mm
09:00 PM 31.8°F-0.1°C 31.6°F-0.2°C 99% Calm Calm -- 28.91 in979.0 mb - 0.00 in0.0 mm 0.00 in0.0 mm
10:00 PM 31.6°F-0.2°C 31.4°F-0.3°C 99% Calm Calm -- 28.93 in979.7 mb - 0.00 in0.0 mm 0.00 in0.0 mm
11:00 PM 31.3°F-0.4°C 31.1°F-0.5°C 99% 1.2 mph W1.9 kmh W 1.2 mph1.9 kmh 28.96 in980.7 mb - 0.00 in0.0 mm 0.00 in0.0 mm